sensor_id;sensor_type;location;lat;lon;timestamp;temperature;humidity
38265;DHT22;24062;47.480;8.768;2022-11-15T00:01:31;6.10;74.70
38265;DHT22;24062;47.480;8.768;2022-11-15T00:03:58;6.10;75.60
38265;DHT22;24062;47.480;8.768;2022-11-15T00:06:26;6.10;75.10
38265;DHT22;24062;47.480;8.768;2022-11-15T00:08:53;6.10;75.20
38265;DHT22;24062;47.480;8.768;2022-11-15T00:11:20;6.10;75.30
38265;DHT22;24062;47.480;8.768;2022-11-15T00:13:47;6.00;75.20
38265;DHT22;24062;47.480;8.768;2022-11-15T00:16:14;6.00;75.40
38265;DHT22;24062;47.480;8.768;2022-11-15T00:18:41;6.00;75.40
38265;DHT22;24062;47.480;8.768;2022-11-15T00:21:10;5.90;75.50
38265;DHT22;24062;47.480;8.768;2022-11-15T00:23:38;5.90;75.60
38265;DHT22;24062;47.480;8.768;2022-11-15T00:26:05;5.90;75.80
38265;DHT22;24062;47.480;8.768;2022-11-15T00:28:32;6.00;76.10
38265;DHT22;24062;47.480;8.768;2022-11-15T00:31:00;6.00;76.20
38265;DHT22;24062;47.480;8.768;2022-11-15T00:33:27;6.00;76.20
38265;DHT22;24062;47.480;8.768;2022-11-15T00:35:59;6.00;76.20
38265;DHT22;24062;47.480;8.768;2022-11-15T00:38:31;6.00;76.20
38265;DHT22;24062;47.480;8.768;2022-11-15T00:40:59;6.00;76.20
38265;DHT22;24062;47.480;8.768;2022-11-15T00:43:26;6.00;76.40
38265;DHT22;24062;47.480;8.768;2022-11-15T00:45:53;6.00;76.60
38265;DHT22;24062;47.480;8.768;2022-11-15T00:48:20;6.00;76.70
38265;DHT22;24062;47.480;8.768;2022-11-15T00:50:48;6.10;76.90
38265;DHT22;24062;47.480;8.768;2022-11-15T00:53:15;6.20;77.20
38265;DHT22;24062;47.480;8.768;2022-11-15T00:55:42;6.20;77.40
38265;DHT22;24062;47.480;8.768;2022-11-15T00:58:10;6.30;77.80
38265;DHT22;24062;47.480;8.768;2022-11-15T01:00:37;6.40;78.00
38265;DHT22;24062;47.480;8.768;2022-11-15T01:03:04;6.50;78.00
38265;DHT22;24062;47.480;8.768;2022-11-15T01:05:31;6.60;78.00
38265;DHT22;24062;47.480;8.768;2022-11-15T01:07:58;6.70;78.20
38265;DHT22;24062;47.480;8.768;2022-11-15T01:10:25;6.80;78.10
38265;DHT22;24062;47.480;8.768;2022-11-15T01:12:52;6.90;78.00
38265;DHT22;24062;47.480;8.768;2022-11-15T01:15:20;7.00;78.10
38265;DHT22;24062;47.480;8.768;2022-11-15T01:17:47;7.10;78.30
38265;DHT22;24062;47.480;8.768;2022-11-15T01:20:14;7.20;78.40
38265;DHT22;24062;47.480;8.768;2022-11-15T01:22:41;7.30;78.50
38265;DHT22;24062;47.480;8.768;2022-11-15T01:25:08;7.30;78.30
38265;DHT22;24062;47.480;8.768;2022-11-15T01:27:34;7.50;78.20
38265;DHT22;24062;47.480;8.768;2022-11-15T01:30:01;7.40;77.90
38265;DHT22;24062;47.480;8.768;2022-11-15T01:32:30;7.40;78.00
38265;DHT22;24062;47.480;8.768;2022-11-15T01:34:57;7.40;78.20
38265;DHT22;24062;47.480;8.768;2022-11-15T01:37:24;7.50;78.30
38265;DHT22;24062;47.480;8.768;2022-11-15T01:39:51;7.60;78.50
38265;DHT22;24062;47.480;8.768;2022-11-15T01:42:18;7.60;78.30
38265;DHT22;24062;47.480;8.768;2022-11-15T01:44:47;7.60;78.00
38265;DHT22;24062;47.480;8.768;2022-11-15T01:47:16;7.60;78.30
38265;DHT22;24062;47.480;8.768;2022-11-15T01:49:51;7.70;78.60
38265;DHT22;24062;47.480;8.768;2022-11-15T01:52:22;7.70;79.30
38265;DHT22;24062;47.480;8.768;2022-11-15T01:54:54;7.70;78.20
38265;DHT22;24062;47.480;8.768;2022-11-15T01:57:23;7.60;77.70
38265;DHT22;24062;47.480;8.768;2022-11-15T01:59:50;7.50;77.60
38265;DHT22;24062;47.480;8.768;2022-11-15T02:02:17;7.40;77.80
38265;DHT22;24062;47.480;8.768;2022-11-15T02:04:47;7.30;78.20
38265;DHT22;24062;47.480;8.768;2022-11-15T02:07:16;7.40;79.40
38265;DHT22;24062;47.480;8.768;2022-11-15T02:09:44;7.40;78.70
38265;DHT22;24062;47.480;8.768;2022-11-15T02:12:13;7.50;79.00
38265;DHT22;24062;47.480;8.768;2022-11-15T02:14:43;7.60;79.10
38265;DHT22;24062;47.480;8.768;2022-11-15T02:17:26;7.70;79.20
38265;DHT22;24062;47.480;8.768;2022-11-15T02:23:35;7.80;79.30
38265;DHT22;24062;47.480;8.768;2022-11-15T02:29:05;7.90;79.30
38265;DHT22;24062;47.480;8.768;2022-11-15T02:31:43;7.90;79.20
38265;DHT22;24062;47.480;8.768;2022-11-15T02:34:18;8.00;79.10
38265;DHT22;24062;47.480;8.768;2022-11-15T02:36:57;8.00;79.10
38265;DHT22;24062;47.480;8.768;2022-11-15T02:39:35;8.00;79.00
38265;DHT22;24062;47.480;8.768;2022-11-15T02:42:08;8.00;79.00
38265;DHT22;24062;47.480;8.768;2022-11-15T02:44:57;8.00;78.80
38265;DHT22;24062;47.480;8.768;2022-11-15T02:47:27;8.10;79.30
38265;DHT22;24062;47.480;8.768;2022-11-15T02:49:59;8.10;79.50
38265;DHT22;24062;47.480;8.768;2022-11-15T02:52:27;8.20;79.40
38265;DHT22;24062;47.480;8.768;2022-11-15T02:54:55;8.20;79.30
38265;DHT22;24062;47.480;8.768;2022-11-15T02:57:36;8.20;79.20
38265;DHT22;24062;47.480;8.768;2022-11-15T03:00:08;8.10;78.90
38265;DHT22;24062;47.480;8.768;2022-11-15T03:03:04;7.90;78.80
38265;DHT22;24062;47.480;8.768;2022-11-15T03:05:41;7.80;79.40
38265;DHT22;24062;47.480;8.768;2022-11-15T03:08:20;7.80;79.60
38265;DHT22;24062;47.480;8.768;2022-11-15T03:10:59;7.80;79.90
38265;DHT22;24062;47.480;8.768;2022-11-15T03:13:34;7.70;80.10
38265;DHT22;24062;47.480;8.768;2022-11-15T03:16:04;7.80;80.50
38265;DHT22;24062;47.480;8.768;2022-11-15T03:18:38;8.00;80.70
38265;DHT22;24062;47.480;8.768;2022-11-15T03:21:08;8.10;80.70
38265;DHT22;24062;47.480;8.768;2022-11-15T03:23:37;8.10;80.60
38265;DHT22;24062;47.480;8.768;2022-11-15T03:26:07;8.10;80.20
38265;DHT22;24062;47.480;8.768;2022-11-15T03:28:36;8.10;79.90
38265;DHT22;24062;47.480;8.768;2022-11-15T03:31:05;8.00;79.90
38265;DHT22;24062;47.480;8.768;2022-11-15T03:33:56;8.10;80.30
38265;DHT22;24062;47.480;8.768;2022-11-15T03:36:25;8.10;80.30
38265;DHT22;24062;47.480;8.768;2022-11-15T03:38:54;8.10;80.20
38265;DHT22;24062;47.480;8.768;2022-11-15T03:41:27;8.00;80.10
38265;DHT22;24062;47.480;8.768;2022-11-15T03:43:59;8.00;80.00
38265;DHT22;24062;47.480;8.768;2022-11-15T03:46:33;8.00;79.90
38265;DHT22;24062;47.480;8.768;2022-11-15T03:49:07;7.90;80.50
38265;DHT22;24062;47.480;8.768;2022-11-15T03:51:36;8.00;79.90
38265;DHT22;24062;47.480;8.768;2022-11-15T03:54:03;8.00;80.00
38265;DHT22;24062;47.480;8.768;2022-11-15T03:56:30;8.00;80.10
38265;DHT22;24062;47.480;8.768;2022-11-15T03:58:57;8.00;79.80
38265;DHT22;24062;47.480;8.768;2022-11-15T04:01:24;8.00;79.80
38265;DHT22;24062;47.480;8.768;2022-11-15T04:03:51;8.00;79.80
38265;DHT22;24062;47.480;8.768;2022-11-15T04:06:19;8.00;80.00
38265;DHT22;24062;47.480;8.768;2022-11-15T04:08:46;8.00;79.80
38265;DHT22;24062;47.480;8.768;2022-11-15T04:11:13;8.10;80.00
38265;DHT22;24062;47.480;8.768;2022-11-15T04:13:40;8.00;80.00
38265;DHT22;24062;47.480;8.768;2022-11-15T04:16:07;8.00;80.00
38265;DHT22;24062;47.480;8.768;2022-11-15T04:18:34;8.00;79.70
38265;DHT22;24062;47.480;8.768;2022-11-15T04:21:00;7.90;79.30
38265;DHT22;24062;47.480;8.768;2022-11-15T04:23:46;7.80;78.80
38265;DHT22;24062;47.480;8.768;2022-11-15T04:26:27;7.70;78.60
38265;DHT22;24062;47.480;8.768;2022-11-15T04:28:54;7.50;78.40
38265;DHT22;24062;47.480;8.768;2022-11-15T04:31:38;7.40;78.40
38265;DHT22;24062;47.480;8.768;2022-11-15T04:34:05;7.20;78.30
38265;DHT22;24062;47.480;8.768;2022-11-15T04:36:32;7.20;78.40
38265;DHT22;24062;47.480;8.768;2022-11-15T04:39:18;7.10;78.60
38265;DHT22;24062;47.480;8.768;2022-11-15T04:41:45;7.10;78.70
38265;DHT22;24062;47.480;8.768;2022-11-15T04:44:12;7.00;78.60
38265;DHT22;24062;47.480;8.768;2022-11-15T04:46:38;7.00;78.50
38265;DHT22;24062;47.480;8.768;2022-11-15T04:49:05;7.00;78.60
38265;DHT22;24062;47.480;8.768;2022-11-15T04:51:32;6.90;78.20
38265;DHT22;24062;47.480;8.768;2022-11-15T04:53:59;6.80;78.30
38265;DHT22;24062;47.480;8.768;2022-11-15T04:56:27;6.60;78.30
38265;DHT22;24062;47.480;8.768;2022-11-15T04:58:54;6.60;78.60
38265;DHT22;24062;47.480;8.768;2022-11-15T05:01:21;6.60;78.70
38265;DHT22;24062;47.480;8.768;2022-11-15T05:03:48;6.60;78.60
38265;DHT22;24062;47.480;8.768;2022-11-15T05:06:32;6.50;78.40
38265;DHT22;24062;47.480;8.768;2022-11-15T05:08:59;6.50;78.10
38265;DHT22;24062;47.480;8.768;2022-11-15T05:11:27;6.40;78.10
38265;DHT22;24062;47.480;8.768;2022-11-15T05:13:54;6.40;78.20
38265;DHT22;24062;47.480;8.768;2022-11-15T05:16:21;6.40;78.40
38265;DHT22;24062;47.480;8.768;2022-11-15T05:18:50;6.40;78.30
38265;DHT22;24062;47.480;8.768;2022-11-15T05:21:17;6.30;78.30
38265;DHT22;24062;47.480;8.768;2022-11-15T05:23:44;6.30;78.10
38265;DHT22;24062;47.480;8.768;2022-11-15T05:26:11;6.30;78.20
38265;DHT22;24062;47.480;8.768;2022-11-15T05:28:40;6.30;78.30
38265;DHT22;24062;47.480;8.768;2022-11-15T05:31:12;6.30;78.70
38265;DHT22;24062;47.480;8.768;2022-11-15T05:33:40;6.30;78.70
38265;DHT22;24062;47.480;8.768;2022-11-15T05:36:11;6.40;78.90
38265;DHT22;24062;47.480;8.768;2022-11-15T05:38:39;6.40;79.00
38265;DHT22;24062;47.480;8.768;2022-11-15T05:41:06;6.40;79.00
38265;DHT22;24062;47.480;8.768;2022-11-15T05:43:35;6.40;78.90
38265;DHT22;24062;47.480;8.768;2022-11-15T05:46:04;6.50;78.70
38265;DHT22;24062;47.480;8.768;2022-11-15T05:48:32;6.40;78.50
38265;DHT22;24062;47.480;8.768;2022-11-15T05:50:59;6.50;78.50
38265;DHT22;24062;47.480;8.768;2022-11-15T05:53:28;6.50;78.60
38265;DHT22;24062;47.480;8.768;2022-11-15T05:55:55;6.50;78.70
38265;DHT22;24062;47.480;8.768;2022-11-15T05:58:22;6.50;78.60
38265;DHT22;24062;47.480;8.768;2022-11-15T06:00:49;6.50;78.60
38265;DHT22;24062;47.480;8.768;2022-11-15T06:03:17;6.60;78.70
38265;DHT22;24062;47.480;8.768;2022-11-15T06:05:44;6.60;78.60
38265;DHT22;24062;47.480;8.768;2022-11-15T06:08:11;6.60;78.50
38265;DHT22;24062;47.480;8.768;2022-11-15T06:10:37;6.60;78.50
38265;DHT22;24062;47.480;8.768;2022-11-15T06:13:04;6.60;78.50
38265;DHT22;24062;47.480;8.768;2022-11-15T06:15:32;6.70;78.70
38265;DHT22;24062;47.480;8.768;2022-11-15T06:18:00;6.70;78.80
38265;DHT22;24062;47.480;8.768;2022-11-15T06:20:29;6.70;78.50
38265;DHT22;24062;47.480;8.768;2022-11-15T06:22:57;6.70;78.30
38265;DHT22;24062;47.480;8.768;2022-11-15T06:25:24;6.70;78.40
38265;DHT22;24062;47.480;8.768;2022-11-15T06:27:52;6.70;78.50
38265;DHT22;24062;47.480;8.768;2022-11-15T06:30:19;6.70;78.60
38265;DHT22;24062;47.480;8.768;2022-11-15T06:32:46;6.80;78.30
38265;DHT22;24062;47.480;8.768;2022-11-15T06:35:13;6.70;78.10
38265;DHT22;24062;47.480;8.768;2022-11-15T06:37:42;6.70;78.20
38265;DHT22;24062;47.480;8.768;2022-11-15T06:40:10;6.70;78.10
38265;DHT22;24062;47.480;8.768;2022-11-15T06:42:37;6.70;78.10
38265;DHT22;24062;47.480;8.768;2022-11-15T06:45:05;6.70;78.00
38265;DHT22;24062;47.480;8.768;2022-11-15T06:47:32;6.70;78.40
38265;DHT22;24062;47.480;8.768;2022-11-15T06:49:59;6.70;78.80
38265;DHT22;24062;47.480;8.768;2022-11-15T06:52:26;6.80;78.90
38265;DHT22;24062;47.480;8.768;2022-11-15T06:54:59;6.90;79.10
38265;DHT22;24062;47.480;8.768;2022-11-15T06:57:26;7.10;79.40
38265;DHT22;24062;47.480;8.768;2022-11-15T06:59:53;7.30;79.70
38265;DHT22;24062;47.480;8.768;2022-11-15T07:02:19;7.50;80.00
38265;DHT22;24062;47.480;8.768;2022-11-15T07:04:46;7.70;80.20
38265;DHT22;24062;47.480;8.768;2022-11-15T07:07:13;7.90;80.30
38265;DHT22;24062;47.480;8.768;2022-11-15T07:09:40;8.00;79.70
38265;DHT22;24062;47.480;8.768;2022-11-15T07:12:08;8.10;79.20
38265;DHT22;24062;47.480;8.768;2022-11-15T07:14:35;8.20;79.50
38265;DHT22;24062;47.480;8.768;2022-11-15T07:17:03;8.30;80.00
38265;DHT22;24062;47.480;8.768;2022-11-15T07:19:30;8.50;80.30
38265;DHT22;24062;47.480;8.768;2022-11-15T07:21:57;8.60;80.40
38265;DHT22;24062;47.480;8.768;2022-11-15T07:24:24;8.80;80.50
38265;DHT22;24062;47.480;8.768;2022-11-15T07:26:50;9.00;80.50
38265;DHT22;24062;47.480;8.768;2022-11-15T07:29:19;9.00;80.40
38265;DHT22;24062;47.480;8.768;2022-11-15T07:31:46;9.10;80.30
38265;DHT22;24062;47.480;8.768;2022-11-15T07:34:13;9.10;80.30
38265;DHT22;24062;47.480;8.768;2022-11-15T07:36:40;9.20;80.50
38265;DHT22;24062;47.480;8.768;2022-11-15T07:39:07;9.20;80.40
38265;DHT22;24062;47.480;8.768;2022-11-15T07:41:34;9.20;80.00
38265;DHT22;24062;47.480;8.768;2022-11-15T07:44:01;9.20;80.00
38265;DHT22;24062;47.480;8.768;2022-11-15T07:46:29;9.20;80.00
38265;DHT22;24062;47.480;8.768;2022-11-15T07:48:56;9.20;80.00
38265;DHT22;24062;47.480;8.768;2022-11-15T07:51:23;9.20;79.80
38265;DHT22;24062;47.480;8.768;2022-11-15T07:53:50;9.10;79.60
38265;DHT22;24062;47.480;8.768;2022-11-15T07:56:17;9.10;79.60
38265;DHT22;24062;47.480;8.768;2022-11-15T07:58:46;9.00;79.70
38265;DHT22;24062;47.480;8.768;2022-11-15T08:01:13;9.00;79.80
38265;DHT22;24062;47.480;8.768;2022-11-15T08:03:41;8.90;79.90
38265;DHT22;24062;47.480;8.768;2022-11-15T08:06:08;9.00;80.00
38265;DHT22;24062;47.480;8.768;2022-11-15T08:08:34;9.00;80.20
38265;DHT22;24062;47.480;8.768;2022-11-15T08:11:02;9.10;80.60
38265;DHT22;24062;47.480;8.768;2022-11-15T08:13:29;9.30;80.70
38265;DHT22;24062;47.480;8.768;2022-11-15T08:15:58;9.40;80.90
38265;DHT22;24062;47.480;8.768;2022-11-15T08:18:25;9.60;81.20
38265;DHT22;24062;47.480;8.768;2022-11-15T08:20:58;9.70;81.40
38265;DHT22;24062;47.480;8.768;2022-11-15T08:23:25;9.90;81.80
38265;DHT22;24062;47.480;8.768;2022-11-15T08:25:58;10.10;81.00
38265;DHT22;24062;47.480;8.768;2022-11-15T08:28:25;10.30;81.30
38265;DHT22;24062;47.480;8.768;2022-11-15T08:30:52;10.50;81.50
38265;DHT22;24062;47.480;8.768;2022-11-15T08:33:18;10.70;81.80
38265;DHT22;24062;47.480;8.768;2022-11-15T08:35:45;11.00;82.10
38265;DHT22;24062;47.480;8.768;2022-11-15T08:38:14;11.10;81.60
38265;DHT22;24062;47.480;8.768;2022-11-15T08:40:41;11.30;81.40
38265;DHT22;24062;47.480;8.768;2022-11-15T08:43:08;11.40;81.70
38265;DHT22;24062;47.480;8.768;2022-11-15T08:45:35;11.50;81.50
38265;DHT22;24062;47.480;8.768;2022-11-15T08:48:02;11.60;81.40
38265;DHT22;24062;47.480;8.768;2022-11-15T08:50:29;11.70;81.30
38265;DHT22;24062;47.480;8.768;2022-11-15T08:52:57;11.80;81.50
38265;DHT22;24062;47.480;8.768;2022-11-15T08:55:25;11.90;81.70
38265;DHT22;24062;47.480;8.768;2022-11-15T08:57:52;12.00;81.50
38265;DHT22;24062;47.480;8.768;2022-11-15T09:00:19;12.20;81.70
38265;DHT22;24062;47.480;8.768;2022-11-15T09:02:46;12.40;82.00
38265;DHT22;24062;47.480;8.768;2022-11-15T09:05:13;12.60;82.20
38265;DHT22;24062;47.480;8.768;2022-11-15T09:07:41;12.90;82.70
38265;DHT22;24062;47.480;8.768;2022-11-15T09:10:08;13.20;83.50
38265;DHT22;24062;47.480;8.768;2022-11-15T09:12:37;13.50;82.80
38265;DHT22;24062;47.480;8.768;2022-11-15T09:15:05;13.60;82.20
38265;DHT22;24062;47.480;8.768;2022-11-15T09:17:32;13.70;81.70
38265;DHT22;24062;47.480;8.768;2022-11-15T09:19:59;13.70;81.50
38265;DHT22;24062;47.480;8.768;2022-11-15T09:22:26;13.80;81.50
38265;DHT22;24062;47.480;8.768;2022-11-15T09:24:54;13.90;81.60
38265;DHT22;24062;47.480;8.768;2022-11-15T09:27:20;14.00;81.10
38265;DHT22;24062;47.480;8.768;2022-11-15T09:29:49;14.10;80.80
38265;DHT22;24062;47.480;8.768;2022-11-15T09:32:15;14.10;79.60
38265;DHT22;24062;47.480;8.768;2022-11-15T09:34:42;14.00;79.80
38265;DHT22;24062;47.480;8.768;2022-11-15T09:37:09;14.10;80.30
38265;DHT22;24062;47.480;8.768;2022-11-15T09:39:36;14.20;80.00
38265;DHT22;24062;47.480;8.768;2022-11-15T09:45:00;14.20;78.80
38265;DHT22;24062;47.480;8.768;2022-11-15T09:48:03;14.30;79.30
38265;DHT22;24062;47.480;8.768;2022-11-15T09:50:38;14.40;78.60
38265;DHT22;24062;47.480;8.768;2022-11-15T09:53:11;14.40;78.80
38265;DHT22;24062;47.480;8.768;2022-11-15T09:55:45;14.40;78.30
38265;DHT22;24062;47.480;8.768;2022-11-15T09:58:21;14.50;78.80
38265;DHT22;24062;47.480;8.768;2022-11-15T10:00:52;14.70;79.00
38265;DHT22;24062;47.480;8.768;2022-11-15T10:03:26;14.90;79.20
38265;DHT22;24062;47.480;8.768;2022-11-15T10:05:57;15.00;78.60
38265;DHT22;24062;47.480;8.768;2022-11-15T10:08:33;15.00;78.40
38265;DHT22;24062;47.480;8.768;2022-11-15T10:11:03;15.10;78.30
38265;DHT22;24062;47.480;8.768;2022-11-15T10:13:33;15.10;77.70
38265;DHT22;24062;47.480;8.768;2022-11-15T10:16:08;15.10;78.00
38265;DHT22;24062;47.480;8.768;2022-11-15T10:18:47;15.20;78.00
38265;DHT22;24062;47.480;8.768;2022-11-15T10:21:21;15.20;77.90
38265;DHT22;24062;47.480;8.768;2022-11-15T10:23:50;15.30;77.80
38265;DHT22;24062;47.480;8.768;2022-11-15T10:26:17;15.30;77.80
38265;DHT22;24062;47.480;8.768;2022-11-15T10:28:44;15.50;78.00
38265;DHT22;24062;47.480;8.768;2022-11-15T10:31:24;15.60;77.90
38265;DHT22;24062;47.480;8.768;2022-11-15T10:33:53;15.80;77.80
38265;DHT22;24062;47.480;8.768;2022-11-15T10:36:24;15.90;77.70
38265;DHT22;24062;47.480;8.768;2022-11-15T10:38:58;16.00;77.70
38265;DHT22;24062;47.480;8.768;2022-11-15T10:41:35;16.10;77.30
38265;DHT22;24062;47.480;8.768;2022-11-15T10:44:25;16.10;76.70
38265;DHT22;24062;47.480;8.768;2022-11-15T10:47:20;16.10;76.30
38265;DHT22;24062;47.480;8.768;2022-11-15T10:50:00;16.10;76.40
38265;DHT22;24062;47.480;8.768;2022-11-15T10:52:28;16.30;76.50
38265;DHT22;24062;47.480;8.768;2022-11-15T10:54:58;16.30;76.00
38265;DHT22;24062;47.480;8.768;2022-11-15T10:57:29;16.30;75.90
38265;DHT22;24062;47.480;8.768;2022-11-15T10:59:58;16.30;75.80
38265;DHT22;24062;47.480;8.768;2022-11-15T11:02:32;16.30;75.90
38265;DHT22;24062;47.480;8.768;2022-11-15T11:05:01;16.40;75.60
38265;DHT22;24062;47.480;8.768;2022-11-15T11:07:30;16.40;75.50
38265;DHT22;24062;47.480;8.768;2022-11-15T11:10:00;16.40;75.30
38265;DHT22;24062;47.480;8.768;2022-11-15T11:12:29;16.50;75.20
38265;DHT22;24062;47.480;8.768;2022-11-15T11:14:58;16.50;75.00
38265;DHT22;24062;47.480;8.768;2022-11-15T11:17:37;16.50;74.80
38265;DHT22;24062;47.480;8.768;2022-11-15T11:20:15;16.60;74.90
38265;DHT22;24062;47.480;8.768;2022-11-15T11:22:55;16.70;74.60
38265;DHT22;24062;47.480;8.768;2022-11-15T11:25:30;16.70;74.60
38265;DHT22;24062;47.480;8.768;2022-11-15T11:28:09;16.80;74.10
38265;DHT22;24062;47.480;8.768;2022-11-15T11:30:47;16.80;73.90
38265;DHT22;24062;47.480;8.768;2022-11-15T11:33:19;16.80;73.70
38265;DHT22;24062;47.480;8.768;2022-11-15T11:35:59;17.00;73.90
38265;DHT22;24062;47.480;8.768;2022-11-15T11:38:49;17.10;73.70
38265;DHT22;24062;47.480;8.768;2022-11-15T11:41:24;17.20;73.30
38265;DHT22;24062;47.480;8.768;2022-11-15T11:44:02;17.30;73.60
38265;DHT22;24062;47.480;8.768;2022-11-15T11:46:44;17.50;73.40
38265;DHT22;24062;47.480;8.768;2022-11-15T11:49:16;17.50;72.90
38265;DHT22;24062;47.480;8.768;2022-11-15T11:51:49;17.50;72.40
38265;DHT22;24062;47.480;8.768;2022-11-15T11:54:22;17.40;72.20
38265;DHT22;24062;47.480;8.768;2022-11-15T11:56:50;17.40;72.10
38265;DHT22;24062;47.480;8.768;2022-11-15T11:59:35;17.40;71.60
38265;DHT22;24062;47.480;8.768;2022-11-15T12:02:12;17.40;71.60
38265;DHT22;24062;47.480;8.768;2022-11-15T12:04:47;17.30;71.20
38265;DHT22;24062;47.480;8.768;2022-11-15T12:07:19;17.40;71.40
38265;DHT22;24062;47.480;8.768;2022-11-15T12:09:53;17.40;70.70
38265;DHT22;24062;47.480;8.768;2022-11-15T12:12:27;17.30;70.50
38265;DHT22;24062;47.480;8.768;2022-11-15T12:15:00;17.30;70.60
38265;DHT22;24062;47.480;8.768;2022-11-15T12:17:30;17.40;70.30
38265;DHT22;24062;47.480;8.768;2022-11-15T12:20:00;17.40;69.90
38265;DHT22;24062;47.480;8.768;2022-11-15T12:22:39;17.40;69.70
38265;DHT22;24062;47.480;8.768;2022-11-15T12:25:15;17.40;69.40
38265;DHT22;24062;47.480;8.768;2022-11-15T12:27:47;17.40;69.40
38265;DHT22;24062;47.480;8.768;2022-11-15T12:30:18;17.40;69.20
38265;DHT22;24062;47.480;8.768;2022-11-15T12:32:54;17.50;69.10
38265;DHT22;24062;47.480;8.768;2022-11-15T12:35:28;17.50;68.70
38265;DHT22;24062;47.480;8.768;2022-11-15T12:37:56;17.50;68.60
38265;DHT22;24062;47.480;8.768;2022-11-15T12:40:35;17.50;68.50
38265;DHT22;24062;47.480;8.768;2022-11-15T12:46:13;17.50;67.50
38265;DHT22;24062;47.480;8.768;2022-11-15T12:48:49;17.40;67.00
38265;DHT22;24062;47.480;8.768;2022-11-15T12:51:20;17.30;66.70
38265;DHT22;24062;47.480;8.768;2022-11-15T12:53:48;17.20;66.30
38265;DHT22;24062;47.480;8.768;2022-11-15T12:56:21;17.10;66.30
38265;DHT22;24062;47.480;8.768;2022-11-15T12:58:50;17.10;66.50
38265;DHT22;24062;47.480;8.768;2022-11-15T13:01:58;17.20;66.40
38265;DHT22;24062;47.480;8.768;2022-11-15T13:04:28;17.00;65.10
38265;DHT22;24062;47.480;8.768;2022-11-15T13:06:59;17.10;65.70
38265;DHT22;24062;47.480;8.768;2022-11-15T13:09:58;17.10;65.40
38265;DHT22;24062;47.480;8.768;2022-11-15T13:12:53;17.10;65.20
38265;DHT22;24062;47.480;8.768;2022-11-15T13:15:53;16.80;64.60
38265;DHT22;24062;47.480;8.768;2022-11-15T13:18:37;16.60;64.50
38265;DHT22;24062;47.480;8.768;2022-11-15T13:21:18;16.60;65.50
38265;DHT22;24062;47.480;8.768;2022-11-15T13:24:04;16.70;66.20
38265;DHT22;24062;47.480;8.768;2022-11-15T13:26:38;16.90;66.30
38265;DHT22;24062;47.480;8.768;2022-11-15T13:29:15;16.90;66.20
38265;DHT22;24062;47.480;8.768;2022-11-15T13:31:43;17.00;66.10
38265;DHT22;24062;47.480;8.768;2022-11-15T13:34:25;17.00;65.60
38265;DHT22;24062;47.480;8.768;2022-11-15T13:36:53;16.90;65.40
38265;DHT22;24062;47.480;8.768;2022-11-15T13:39:28;16.70;64.90
38265;DHT22;24062;47.480;8.768;2022-11-15T13:41:55;16.50;64.60
38265;DHT22;24062;47.480;8.768;2022-11-15T13:44:25;16.20;64.60
38265;DHT22;24062;47.480;8.768;2022-11-15T13:47:03;16.10;64.90
38265;DHT22;24062;47.480;8.768;2022-11-15T13:49:31;16.00;64.90
38265;DHT22;24062;47.480;8.768;2022-11-15T13:51:59;15.80;64.80
38265;DHT22;24062;47.480;8.768;2022-11-15T13:54:30;15.60;64.50
38265;DHT22;24062;47.480;8.768;2022-11-15T13:57:02;15.40;64.70
38265;DHT22;24062;47.480;8.768;2022-11-15T13:59:31;15.20;64.70
38265;DHT22;24062;47.480;8.768;2022-11-15T14:02:02;15.10;65.00
38265;DHT22;24062;47.480;8.768;2022-11-15T14:04:31;14.90;65.80
38265;DHT22;24062;47.480;8.768;2022-11-15T14:07:01;14.90;65.50
38265;DHT22;24062;47.480;8.768;2022-11-15T14:09:35;14.70;65.50
38265;DHT22;24062;47.480;8.768;2022-11-15T14:12:25;14.60;65.80
38265;DHT22;24062;47.480;8.768;2022-11-15T14:14:52;14.50;66.00
38265;DHT22;24062;47.480;8.768;2022-11-15T14:17:21;14.50;66.10
38265;DHT22;24062;47.480;8.768;2022-11-15T14:19:58;14.40;66.10
38265;DHT22;24062;47.480;8.768;2022-11-15T14:22:26;14.30;66.20
38265;DHT22;24062;47.480;8.768;2022-11-15T14:25:15;14.30;66.30
38265;DHT22;24062;47.480;8.768;2022-11-15T14:27:43;14.20;66.50
38265;DHT22;24062;47.480;8.768;2022-11-15T14:30:15;14.20;66.50
38265;DHT22;24062;47.480;8.768;2022-11-15T14:32:45;14.20;66.70
38265;DHT22;24062;47.480;8.768;2022-11-15T14:35:16;14.20;66.60
38265;DHT22;24062;47.480;8.768;2022-11-15T14:37:44;14.10;66.70
38265;DHT22;24062;47.480;8.768;2022-11-15T14:40:15;14.10;66.90
38265;DHT22;24062;47.480;8.768;2022-11-15T14:42:43;14.00;66.70
38265;DHT22;24062;47.480;8.768;2022-11-15T14:45:14;14.00;66.70
38265;DHT22;24062;47.480;8.768;2022-11-15T14:47:41;13.80;66.50
38265;DHT22;24062;47.480;8.768;2022-11-15T14:50:11;13.60;66.70
38265;DHT22;24062;47.480;8.768;2022-11-15T14:52:39;13.60;67.00
38265;DHT22;24062;47.480;8.768;2022-11-15T14:55:16;13.50;67.10
38265;DHT22;24062;47.480;8.768;2022-11-15T14:57:44;13.40;67.40
38265;DHT22;24062;47.480;8.768;2022-11-15T15:00:13;13.30;67.30
38265;DHT22;24062;47.480;8.768;2022-11-15T15:02:40;13.30;67.30
38265;DHT22;24062;47.480;8.768;2022-11-15T15:05:16;13.30;67.60
38265;DHT22;24062;47.480;8.768;2022-11-15T15:07:43;13.20;67.70
38265;DHT22;24062;47.480;8.768;2022-11-15T15:10:11;13.20;67.60
38265;DHT22;24062;47.480;8.768;2022-11-15T15:12:39;13.10;67.50
38265;DHT22;24062;47.480;8.768;2022-11-15T15:15:13;13.00;67.50
38265;DHT22;24062;47.480;8.768;2022-11-15T15:17:40;12.90;67.60
38265;DHT22;24062;47.480;8.768;2022-11-15T15:20:08;13.00;68.00
38265;DHT22;24062;47.480;8.768;2022-11-15T15:22:35;13.10;68.30
38265;DHT22;24062;47.480;8.768;2022-11-15T15:25:01;13.20;68.40
38265;DHT22;24062;47.480;8.768;2022-11-15T15:27:29;13.30;68.10
38265;DHT22;24062;47.480;8.768;2022-11-15T15:29:57;13.20;67.70
38265;DHT22;24062;47.480;8.768;2022-11-15T15:32:24;13.20;67.50
38265;DHT22;24062;47.480;8.768;2022-11-15T15:34:51;13.10;67.70
38265;DHT22;24062;47.480;8.768;2022-11-15T15:37:22;13.10;68.00
38265;DHT22;24062;47.480;8.768;2022-11-15T15:39:50;13.10;67.80
38265;DHT22;24062;47.480;8.768;2022-11-15T15:42:18;13.10;67.50
38265;DHT22;24062;47.480;8.768;2022-11-15T15:44:45;12.90;67.40
38265;DHT22;24062;47.480;8.768;2022-11-15T15:47:16;12.90;67.70
38265;DHT22;24062;47.480;8.768;2022-11-15T15:49:44;12.90;68.00
38265;DHT22;24062;47.480;8.768;2022-11-15T15:52:11;12.50;68.30
38265;DHT22;24062;47.480;8.768;2022-11-15T15:54:38;12.30;68.80
38265;DHT22;24062;47.480;8.768;2022-11-15T15:57:05;12.30;69.20
38265;DHT22;24062;47.480;8.768;2022-11-15T15:59:32;12.20;69.50
38265;DHT22;24062;47.480;8.768;2022-11-15T16:01:59;12.30;69.70
38265;DHT22;24062;47.480;8.768;2022-11-15T16:04:28;12.30;69.70
38265;DHT22;24062;47.480;8.768;2022-11-15T16:06:58;12.40;69.90
38265;DHT22;24062;47.480;8.768;2022-11-15T16:09:25;12.30;69.80
38265;DHT22;24062;47.480;8.768;2022-11-15T16:12:06;12.40;69.80
38265;DHT22;24062;47.480;8.768;2022-11-15T16:14:33;12.40;69.90